sensor_id;sensor_type;location;lat;lon;timestamp;pressure;altitude;pressure_sealevel;temperature;humidity
43621;BME280;29213;50.770;7.298;2023-01-15T00:01:38;99221.81;;;6.23;66.55
43621;BME280;29213;50.770;7.298;2023-01-15T00:04:05;99341.03;;;6.86;65.39
43621;BME280;29213;50.770;7.298;2023-01-15T00:06:35;99378.59;;;6.73;62.40
43621;BME280;29213;50.770;7.298;2023-01-15T00:09:00;99310.22;;;6.20;62.71
43621;BME280;29213;50.770;7.298;2023-01-15T00:11:26;99371.69;;;6.55;62.76
43621;BME280;29213;50.770;7.298;2023-01-15T00:13:51;99316.78;;;6.24;62.82
43621;BME280;29213;50.770;7.298;2023-01-15T00:16:22;99382.44;;;6.62;61.49
43621;BME280;29213;50.770;7.298;2023-01-15T00:18:56;99394.50;;;6.56;62.29
43621;BME280;29213;50.770;7.298;2023-01-15T00:21:22;99295.03;;;5.81;62.65
43621;BME280;29213;50.770;7.298;2023-01-15T00:23:48;99393.50;;;6.33;62.61
43621;BME280;29213;50.770;7.298;2023-01-15T00:26:33;99412.84;;;6.33;62.88
43621;BME280;29213;50.770;7.298;2023-01-15T00:29:19;99404.91;;;6.33;63.26
43621;BME280;29213;50.770;7.298;2023-01-15T00:32:01;99362.22;;;5.86;63.15
43621;BME280;29213;50.770;7.298;2023-01-15T00:34:27;99362.56;;;5.83;62.35
43621;BME280;29213;50.770;7.298;2023-01-15T00:36:53;99384.03;;;5.97;63.02
43621;BME280;29213;50.770;7.298;2023-01-15T00:39:19;99415.63;;;6.23;62.65
43621;BME280;29213;50.770;7.298;2023-01-15T00:41:44;99407.34;;;6.18;62.82
43621;BME280;29213;50.770;7.298;2023-01-15T00:44:10;99355.25;;;5.69;61.93
43621;BME280;29213;50.770;7.298;2023-01-15T00:46:35;99304.84;;;5.37;61.94
43621;BME280;29213;50.770;7.298;2023-01-15T00:49:02;99355.06;;;5.62;62.88
43621;BME280;29213;50.770;7.298;2023-01-15T00:51:28;99337.19;;;5.39;62.41
43621;BME280;29213;50.770;7.298;2023-01-15T00:53:53;99349.94;;;5.52;62.27
43621;BME280;29213;50.770;7.298;2023-01-15T00:56:18;99346.47;;;5.52;62.11
43621;BME280;29213;50.770;7.298;2023-01-15T00:58:44;99445.38;;;6.09;62.24
43621;BME280;29213;50.770;7.298;2023-01-15T01:01:12;99391.09;;;5.80;62.36
43621;BME280;29213;50.770;7.298;2023-01-15T01:03:37;99393.44;;;5.83;62.21
43621;BME280;29213;50.770;7.298;2023-01-15T01:06:04;99379.19;;;5.59;61.62
43621;BME280;29213;50.770;7.298;2023-01-15T01:08:29;99392.06;;;5.62;61.85
43621;BME280;29213;50.770;7.298;2023-01-15T01:11:22;99425.19;;;5.99;62.51
43621;BME280;29213;50.770;7.298;2023-01-15T01:13:51;99437.41;;;5.92;62.38
43621;BME280;29213;50.770;7.298;2023-01-15T01:18:50;99268.03;;;4.84;62.42
43621;BME280;29213;50.770;7.298;2023-01-15T01:21:16;99376.66;;;5.49;62.05
43621;BME280;29213;50.770;7.298;2023-01-15T01:23:41;99424.25;;;5.66;61.20
43621;BME280;29213;50.770;7.298;2023-01-15T01:26:07;99444.19;;;5.52;61.48
43621;BME280;29213;50.770;7.298;2023-01-15T01:28:32;99406.25;;;5.18;62.11
43621;BME280;29213;50.770;7.298;2023-01-15T01:30:57;99388.63;;;5.18;62.35
43621;BME280;29213;50.770;7.298;2023-01-15T01:33:23;99400.44;;;5.49;62.22
43621;BME280;29213;50.770;7.298;2023-01-15T01:35:49;99451.88;;;5.80;62.42
43621;BME280;29213;50.770;7.298;2023-01-15T01:38:15;99454.88;;;5.85;62.56
43621;BME280;29213;50.770;7.298;2023-01-15T01:40:40;99409.69;;;5.53;62.12
43621;BME280;29213;50.770;7.298;2023-01-15T01:43:25;99456.84;;;5.83;62.22
43621;BME280;29213;50.770;7.298;2023-01-15T01:45:50;99458.53;;;5.92;62.35
43621;BME280;29213;50.770;7.298;2023-01-15T01:48:18;99438.34;;;5.74;62.18
43621;BME280;29213;50.770;7.298;2023-01-15T01:50:45;99437.38;;;5.84;61.20
43621;BME280;29213;50.770;7.298;2023-01-15T01:53:16;99358.09;;;5.16;61.75
43621;BME280;29213;50.770;7.298;2023-01-15T01:55:43;99364.38;;;5.23;61.99
43621;BME280;29213;50.770;7.298;2023-01-15T01:58:09;99418.81;;;5.59;61.54
43621;BME280;29213;50.770;7.298;2023-01-15T02:00:37;99415.94;;;5.44;61.55
43621;BME280;29213;50.770;7.298;2023-01-15T02:03:06;99280.34;;;4.67;61.03
43621;BME280;29213;50.770;7.298;2023-01-15T02:05:37;99292.91;;;4.73;61.68
43621;BME280;29213;50.770;7.298;2023-01-15T02:08:05;99414.34;;;5.59;61.46
43621;BME280;29213;50.770;7.298;2023-01-15T02:10:32;99237.06;;;4.51;61.08
43621;BME280;29213;50.770;7.298;2023-01-15T02:13:04;99421.44;;;5.59;60.95
43621;BME280;29213;50.770;7.298;2023-01-15T02:15:38;99444.28;;;5.85;60.95
43621;BME280;29213;50.770;7.298;2023-01-15T02:20:58;99418.03;;;5.75;60.33
43621;BME280;29213;50.770;7.298;2023-01-15T02:26:07;99406.75;;;5.56;60.61
43621;BME280;29213;50.770;7.298;2023-01-15T02:28:39;99312.97;;;5.01;60.68
43621;BME280;29213;50.770;7.298;2023-01-15T02:31:14;99404.47;;;5.70;60.35
43621;BME280;29213;50.770;7.298;2023-01-15T02:33:59;99369.38;;;5.34;60.07
43621;BME280;29213;50.770;7.298;2023-01-15T02:36:33;99331.00;;;5.14;60.26
43621;BME280;29213;50.770;7.298;2023-01-15T02:39:02;99406.41;;;5.59;60.00
43621;BME280;29213;50.770;7.298;2023-01-15T02:41:34;99378.97;;;5.44;59.42
43621;BME280;29213;50.770;7.298;2023-01-15T02:44:02;99345.03;;;5.14;59.90
43621;BME280;29213;50.770;7.298;2023-01-15T02:46:32;99409.25;;;5.66;59.21
43621;BME280;29213;50.770;7.298;2023-01-15T02:49:00;99347.91;;;5.29;58.09
43621;BME280;29213;50.770;7.298;2023-01-15T02:51:32;99370.53;;;5.40;59.48
43621;BME280;29213;50.770;7.298;2023-01-15T02:54:02;99295.34;;;5.09;59.06
43621;BME280;29213;50.770;7.298;2023-01-15T02:56:30;99381.13;;;5.57;59.40
43621;BME280;29213;50.770;7.298;2023-01-15T02:59:02;99361.66;;;5.41;59.74
43621;BME280;29213;50.770;7.298;2023-01-15T03:01:39;99255.06;;;4.56;57.75
43621;BME280;29213;50.770;7.298;2023-01-15T03:04:11;99399.28;;;5.52;59.02
43621;BME280;29213;50.770;7.298;2023-01-15T03:06:44;99358.97;;;5.33;58.69
43621;BME280;29213;50.770;7.298;2023-01-15T03:09:12;99333.44;;;5.07;58.86
43621;BME280;29213;50.770;7.298;2023-01-15T03:11:43;99383.44;;;5.52;59.13
43621;BME280;29213;50.770;7.298;2023-01-15T03:14:21;99402.81;;;5.69;59.17
43621;BME280;29213;50.770;7.298;2023-01-15T03:16:52;99393.19;;;5.59;59.18
43621;BME280;29213;50.770;7.298;2023-01-15T03:21:57;99421.31;;;5.69;58.57
43621;BME280;29213;50.770;7.298;2023-01-15T03:24:29;99369.03;;;5.38;58.49
43621;BME280;29213;50.770;7.298;2023-01-15T03:26:56;99423.44;;;5.65;59.15
43621;BME280;29213;50.770;7.298;2023-01-15T03:29:23;99374.94;;;5.31;59.45
43621;BME280;29213;50.770;7.298;2023-01-15T03:31:50;99373.16;;;5.40;58.83
43621;BME280;29213;50.770;7.298;2023-01-15T03:34:16;99361.81;;;5.40;59.13
43621;BME280;29213;50.770;7.298;2023-01-15T03:36:41;99376.03;;;5.55;59.00
43621;BME280;29213;50.770;7.298;2023-01-15T03:39:07;99286.38;;;4.86;58.90
43621;BME280;29213;50.770;7.298;2023-01-15T03:41:49;99372.31;;;5.31;58.54
43621;BME280;29213;50.770;7.298;2023-01-15T03:50:26;99426.56;;;5.60;57.83
43621;BME280;29213;50.770;7.298;2023-01-15T03:53:12;99424.03;;;5.51;58.15
43621;BME280;29213;50.770;7.298;2023-01-15T03:55:47;99418.41;;;5.45;58.82
43621;BME280;29213;50.770;7.298;2023-01-15T03:58:20;99422.19;;;5.43;58.33
43621;BME280;29213;50.770;7.298;2023-01-15T04:00:51;99356.59;;;5.13;58.31
43621;BME280;29213;50.770;7.298;2023-01-15T04:03:18;99399.50;;;5.23;56.83
43621;BME280;29213;50.770;7.298;2023-01-15T04:05:45;99324.91;;;4.78;57.51
43621;BME280;29213;50.770;7.298;2023-01-15T04:08:12;99327.06;;;4.75;56.94
43621;BME280;29213;50.770;7.298;2023-01-15T04:10:50;99338.63;;;4.82;57.43
43621;BME280;29213;50.770;7.298;2023-01-15T04:13:16;99361.59;;;4.90;56.82
43621;BME280;29213;50.770;7.298;2023-01-15T04:15:41;99339.13;;;4.86;57.66
43621;BME280;29213;50.770;7.298;2023-01-15T04:18:06;99309.03;;;4.70;57.02
43621;BME280;29213;50.770;7.298;2023-01-15T04:20:32;99295.50;;;4.65;56.73
43621;BME280;29213;50.770;7.298;2023-01-15T04:22:58;99150.22;;;3.80;55.99
43621;BME280;29213;50.770;7.298;2023-01-15T04:25:23;99316.22;;;4.86;55.81
43621;BME280;29213;50.770;7.298;2023-01-15T04:27:48;99264.81;;;4.55;56.75
43621;BME280;29213;50.770;7.298;2023-01-15T04:30:14;99275.94;;;4.76;57.13
43621;BME280;29213;50.770;7.298;2023-01-15T04:32:42;99256.13;;;4.72;56.63
43621;BME280;29213;50.770;7.298;2023-01-15T04:35:07;99189.31;;;4.28;56.21
43621;BME280;29213;50.770;7.298;2023-01-15T04:37:33;99330.47;;;5.02;55.88
43621;BME280;29213;50.770;7.298;2023-01-15T04:39:58;99268.25;;;4.56;56.90
43621;BME280;29213;50.770;7.298;2023-01-15T04:42:24;99377.16;;;5.09;56.16
43621;BME280;29213;50.770;7.298;2023-01-15T04:45:08;99328.47;;;4.69;57.13
43621;BME280;29213;50.770;7.298;2023-01-15T04:47:34;99352.22;;;4.69;57.28
43621;BME280;29213;50.770;7.298;2023-01-15T04:49:59;99345.41;;;4.58;56.71
43621;BME280;29213;50.770;7.298;2023-01-15T04:52:25;99393.13;;;4.73;57.52
43621;BME280;29213;50.770;7.298;2023-01-15T04:54:53;99395.41;;;4.68;57.35
43621;BME280;29213;50.770;7.298;2023-01-15T04:57:18;99348.91;;;4.40;57.66
43621;BME280;29213;50.770;7.298;2023-01-15T04:59:44;99339.53;;;4.46;57.84
43621;BME280;29213;50.770;7.298;2023-01-15T05:02:09;99391.09;;;4.85;57.99
43621;BME280;29213;50.770;7.298;2023-01-15T05:04:35;99325.31;;;4.39;57.79
43621;BME280;29213;50.770;7.298;2023-01-15T05:07:02;99340.13;;;4.58;57.60
43621;BME280;29213;50.770;7.298;2023-01-15T05:09:27;99255.69;;;3.79;56.67
43621;BME280;29213;50.770;7.298;2023-01-15T05:11:53;99377.91;;;4.40;57.06
43621;BME280;29213;50.770;7.298;2023-01-15T05:14:18;99387.91;;;4.55;58.12
43621;BME280;29213;50.770;7.298;2023-01-15T05:16:43;99303.00;;;4.07;57.86
43621;BME280;29213;50.770;7.298;2023-01-15T05:19:09;99400.75;;;4.76;57.93
43621;BME280;29213;50.770;7.298;2023-01-15T05:21:38;99269.28;;;3.92;56.72
43621;BME280;29213;50.770;7.298;2023-01-15T05:24:05;99332.78;;;4.25;56.90
43621;BME280;29213;50.770;7.298;2023-01-15T05:26:34;99406.19;;;4.75;57.89
43621;BME280;29213;50.770;7.298;2023-01-15T05:29:00;99400.22;;;4.73;57.09
43621;BME280;29213;50.770;7.298;2023-01-15T05:31:27;99318.84;;;4.33;57.33
43621;BME280;29213;50.770;7.298;2023-01-15T05:33:54;99392.66;;;4.78;56.63
43621;BME280;29213;50.770;7.298;2023-01-15T05:36:24;99306.69;;;4.14;56.63
43621;BME280;29213;50.770;7.298;2023-01-15T05:38:52;99405.06;;;4.59;55.61
43621;BME280;29213;50.770;7.298;2023-01-15T05:41:19;99409.06;;;4.63;55.75
43621;BME280;29213;50.770;7.298;2023-01-15T05:44:05;99359.44;;;4.40;55.29
43621;BME280;29213;50.770;7.298;2023-01-15T05:46:33;99387.59;;;4.40;55.01
43621;BME280;29213;50.770;7.298;2023-01-15T05:49:00;99397.84;;;4.43;54.41
43621;BME280;29213;50.770;7.298;2023-01-15T05:51:26;99330.25;;;4.15;56.30
43621;BME280;29213;50.770;7.298;2023-01-15T05:53:51;99239.53;;;3.55;55.58
43621;BME280;29213;50.770;7.298;2023-01-15T05:56:17;99377.44;;;4.27;55.00
43621;BME280;29213;50.770;7.298;2023-01-15T05:58:42;99416.63;;;4.58;54.86
43621;BME280;29213;50.770;7.298;2023-01-15T06:01:09;99426.84;;;4.61;55.25
43621;BME280;29213;50.770;7.298;2023-01-15T06:03:35;99360.69;;;4.10;54.55
43621;BME280;29213;50.770;7.298;2023-01-15T06:06:02;99419.84;;;4.34;55.38
43621;BME280;29213;50.770;7.298;2023-01-15T06:08:27;99438.81;;;4.37;56.09
43621;BME280;29213;50.770;7.298;2023-01-15T06:10:53;99443.34;;;4.45;55.62
43621;BME280;29213;50.770;7.298;2023-01-15T06:13:18;99463.75;;;4.61;55.69
43621;BME280;29213;50.770;7.298;2023-01-15T06:15:44;99450.13;;;4.66;55.45
43621;BME280;29213;50.770;7.298;2023-01-15T06:18:10;99454.56;;;4.65;55.01
43621;BME280;29213;50.770;7.298;2023-01-15T06:20:36;99336.06;;;3.83;55.13
43621;BME280;29213;50.770;7.298;2023-01-15T06:23:02;99463.38;;;4.74;56.21
43621;BME280;29213;50.770;7.298;2023-01-15T06:25:28;99390.53;;;4.37;55.02
43621;BME280;29213;50.770;7.298;2023-01-15T06:27:53;99330.19;;;4.07;55.24
43621;BME280;29213;50.770;7.298;2023-01-15T06:30:19;99432.44;;;4.58;55.39
43621;BME280;29213;50.770;7.298;2023-01-15T06:32:44;99353.66;;;3.82;55.92
43621;BME280;29213;50.770;7.298;2023-01-15T06:35:09;99396.72;;;4.09;56.30
43621;BME280;29213;50.770;7.298;2023-01-15T06:37:36;99325.97;;;3.60;56.44
43621;BME280;29213;50.770;7.298;2023-01-15T06:40:01;99464.19;;;4.38;56.71
43621;BME280;29213;50.770;7.298;2023-01-15T06:42:27;99333.13;;;3.68;56.74
43621;BME280;29213;50.770;7.298;2023-01-15T06:45:11;99376.13;;;4.05;56.97
43621;BME280;29213;50.770;7.298;2023-01-15T06:47:56;99339.31;;;3.77;56.74
43621;BME280;29213;50.770;7.298;2023-01-15T06:50:22;99449.59;;;4.44;57.49
43621;BME280;29213;50.770;7.298;2023-01-15T06:52:48;99450.13;;;4.48;57.50
43621;BME280;29213;50.770;7.298;2023-01-15T06:55:13;99354.44;;;3.93;57.40
43621;BME280;29213;50.770;7.298;2023-01-15T06:57:39;99461.88;;;4.53;57.82
43621;BME280;29213;50.770;7.298;2023-01-15T07:00:07;99453.53;;;4.58;57.77
43621;BME280;29213;50.770;7.298;2023-01-15T07:02:33;99455.38;;;4.48;57.59
43621;BME280;29213;50.770;7.298;2023-01-15T07:04:58;99473.00;;;4.47;58.00
43621;BME280;29213;50.770;7.298;2023-01-15T07:07:24;99378.06;;;3.84;58.12
43621;BME280;29213;50.770;7.298;2023-01-15T07:09:49;99478.81;;;4.51;58.01
43621;BME280;29213;50.770;7.298;2023-01-15T07:12:15;99385.03;;;3.57;58.00
43621;BME280;29213;50.770;7.298;2023-01-15T07:14:41;99445.66;;;3.66;59.48
43621;BME280;29213;50.770;7.298;2023-01-15T07:17:06;99408.31;;;3.24;59.44
43621;BME280;29213;50.770;7.298;2023-01-15T07:19:32;99463.28;;;3.65;59.54
43621;BME280;29213;50.770;7.298;2023-01-15T07:21:57;99195.50;;;1.99;58.92
43621;BME280;29213;50.770;7.298;2023-01-15T07:24:23;99482.94;;;3.71;59.15
43621;BME280;29213;50.770;7.298;2023-01-15T07:26:48;99385.81;;;3.12;59.49
43621;BME280;29213;50.770;7.298;2023-01-15T07:29:14;99415.34;;;3.33;59.03
43621;BME280;29213;50.770;7.298;2023-01-15T07:31:40;99471.66;;;3.51;59.36
43621;BME280;29213;50.770;7.298;2023-01-15T07:34:06;99491.31;;;3.56;59.29
43621;BME280;29213;50.770;7.298;2023-01-15T07:36:31;99460.25;;;3.32;59.48
43621;BME280;29213;50.770;7.298;2023-01-15T07:38:57;99414.75;;;3.12;61.20
43621;BME280;29213;50.770;7.298;2023-01-15T07:41:23;99435.91;;;3.20;59.75
43621;BME280;29213;50.770;7.298;2023-01-15T07:44:10;99489.66;;;3.55;59.88
43621;BME280;29213;50.770;7.298;2023-01-15T07:46:55;99424.13;;;3.24;59.77
43621;BME280;29213;50.770;7.298;2023-01-15T07:49:41;99511.03;;;3.80;59.80
43621;BME280;29213;50.770;7.298;2023-01-15T07:52:17;99482.59;;;3.56;59.24
43621;BME280;29213;50.770;7.298;2023-01-15T07:54:43;99368.25;;;3.02;59.03
43621;BME280;29213;50.770;7.298;2023-01-15T07:57:10;99497.03;;;3.80;58.64
43621;BME280;29213;50.770;7.298;2023-01-15T07:59:36;99452.19;;;3.33;58.34
43621;BME280;29213;50.770;7.298;2023-01-15T08:02:01;99369.69;;;2.87;59.00
43621;BME280;29213;50.770;7.298;2023-01-15T08:04:27;99418.31;;;3.20;58.90
43621;BME280;29213;50.770;7.298;2023-01-15T08:06:52;99479.09;;;3.65;58.22
43621;BME280;29213;50.770;7.298;2023-01-15T08:09:18;99454.50;;;3.46;58.16
43621;BME280;29213;50.770;7.298;2023-01-15T08:11:43;99479.50;;;3.60;57.33
43621;BME280;29213;50.770;7.298;2023-01-15T08:14:27;99526.31;;;3.77;58.42
43621;BME280;29213;50.770;7.298;2023-01-15T08:17:11;99469.28;;;3.57;58.10
43621;BME280;29213;50.770;7.298;2023-01-15T08:19:37;99377.91;;;3.12;57.57
43621;BME280;29213;50.770;7.298;2023-01-15T08:22:02;99446.63;;;3.37;57.54
43621;BME280;29213;50.770;7.298;2023-01-15T08:24:27;99493.56;;;3.51;56.98
43621;BME280;29213;50.770;7.298;2023-01-15T08:26:53;99420.31;;;2.99;57.53
43621;BME280;29213;50.770;7.298;2023-01-15T08:29:19;99477.09;;;3.39;57.82
43621;BME280;29213;50.770;7.298;2023-01-15T08:31:45;99440.97;;;3.31;56.86
43621;BME280;29213;50.770;7.298;2023-01-15T08:34:11;99505.91;;;3.79;57.22
43621;BME280;29213;50.770;7.298;2023-01-15T08:36:36;99562.00;;;4.17;56.98
43621;BME280;29213;50.770;7.298;2023-01-15T08:39:02;99561.34;;;4.15;57.29
43621;BME280;29213;50.770;7.298;2023-01-15T08:41:28;99573.69;;;4.14;57.42
43621;BME280;29213;50.770;7.298;2023-01-15T08:43:54;99427.69;;;3.33;57.13
43621;BME280;29213;50.770;7.298;2023-01-15T08:46:19;99574.88;;;4.20;57.24
43621;BME280;29213;50.770;7.298;2023-01-15T08:48:45;99447.13;;;3.50;57.40
43621;BME280;29213;50.770;7.298;2023-01-15T08:51:11;99497.56;;;3.83;57.25
43621;BME280;29213;50.770;7.298;2023-01-15T08:53:37;99568.88;;;4.28;57.29
43621;BME280;29213;50.770;7.298;2023-01-15T08:56:03;99482.13;;;3.70;57.48
43621;BME280;29213;50.770;7.298;2023-01-15T08:58:30;99571.91;;;4.33;56.23
43621;BME280;29213;50.770;7.298;2023-01-15T09:01:03;99550.03;;;4.23;57.41
43621;BME280;29213;50.770;7.298;2023-01-15T09:03:28;99447.56;;;3.73;58.94
43621;BME280;29213;50.770;7.298;2023-01-15T09:05:57;99588.41;;;4.63;57.58
43621;BME280;29213;50.770;7.298;2023-01-15T09:08:22;99496.19;;;4.07;57.24
43621;BME280;29213;50.770;7.298;2023-01-15T09:10:48;99593.91;;;4.70;57.07
43621;BME280;29213;50.770;7.298;2023-01-15T09:13:13;99545.50;;;4.43;56.89
43621;BME280;29213;50.770;7.298;2023-01-15T09:15:38;99532.06;;;4.36;56.32
43621;BME280;29213;50.770;7.298;2023-01-15T09:18:04;99522.72;;;4.42;56.50
43621;BME280;29213;50.770;7.298;2023-01-15T09:20:29;99553.00;;;4.66;56.15
43621;BME280;29213;50.770;7.298;2023-01-15T09:22:55;99493.41;;;4.27;56.27
43621;BME280;29213;50.770;7.298;2023-01-15T09:25:20;99599.34;;;4.87;56.24
43621;BME280;29213;50.770;7.298;2023-01-15T09:27:48;99602.72;;;4.97;56.33
43621;BME280;29213;50.770;7.298;2023-01-15T09:30:19;99503.31;;;4.43;56.26
43621;BME280;29213;50.770;7.298;2023-01-15T09:32:45;99499.22;;;4.49;56.14
43621;BME280;29213;50.770;7.298;2023-01-15T09:35:10;99553.97;;;4.83;55.84
43621;BME280;29213;50.770;7.298;2023-01-15T09:37:36;99567.63;;;4.78;55.77
43621;BME280;29213;50.770;7.298;2023-01-15T09:40:01;99579.06;;;4.87;55.63
43621;BME280;29213;50.770;7.298;2023-01-15T09:42:53;99523.91;;;4.58;56.21
43621;BME280;29213;50.770;7.298;2023-01-15T09:45:28;99443.50;;;4.07;56.12
43621;BME280;29213;50.770;7.298;2023-01-15T09:53:45;99551.78;;;4.60;55.52
43621;BME280;29213;50.770;7.298;2023-01-15T09:56:24;99573.31;;;4.92;54.77
43621;BME280;29213;50.770;7.298;2023-01-15T09:58:52;99579.97;;;4.96;55.80
43621;BME280;29213;50.770;7.298;2023-01-15T10:01:24;99545.28;;;4.73;54.86
43621;BME280;29213;50.770;7.298;2023-01-15T10:03:56;99591.88;;;5.00;55.16
43621;BME280;29213;50.770;7.298;2023-01-15T10:06:26;99549.91;;;4.89;55.29
43621;BME280;29213;50.770;7.298;2023-01-15T10:09:11;99549.94;;;4.97;54.79
43621;BME280;29213;50.770;7.298;2023-01-15T10:11:42;99579.84;;;5.24;54.17
43621;BME280;29213;50.770;7.298;2023-01-15T10:14:33;99556.28;;;5.04;54.34
43621;BME280;29213;50.770;7.298;2023-01-15T10:17:05;99451.63;;;4.32;53.57
43621;BME280;29213;50.770;7.298;2023-01-15T10:19:32;99539.50;;;4.87;54.46
43621;BME280;29213;50.770;7.298;2023-01-15T10:22:05;99488.09;;;4.55;53.57
43621;BME280;29213;50.770;7.298;2023-01-15T10:24:39;99522.00;;;4.86;54.33
43621;BME280;29213;50.770;7.298;2023-01-15T10:27:24;99483.06;;;4.62;53.38
43621;BME280;29213;50.770;7.298;2023-01-15T10:32:55;99549.94;;;4.97;53.00
43621;BME280;29213;50.770;7.298;2023-01-15T10:35:30;99601.75;;;5.16;53.41
43621;BME280;29213;50.770;7.298;2023-01-15T10:38:23;99626.63;;;5.32;52.23
43621;BME280;29213;50.770;7.298;2023-01-15T10:41:08;99595.28;;;4.92;52.85
43621;BME280;29213;50.770;7.298;2023-01-15T10:46:11;99636.91;;;4.99;50.51
43621;BME280;29213;50.770;7.298;2023-01-15T10:48:58;99570.72;;;4.74;51.79
43621;BME280;29213;50.770;7.298;2023-01-15T10:51:33;99526.38;;;4.59;52.07
43621;BME280;29213;50.770;7.298;2023-01-15T10:54:04;99624.69;;;5.16;50.46
43621;BME280;29213;50.770;7.298;2023-01-15T10:56:42;99510.63;;;4.49;50.25
43621;BME280;29213;50.770;7.298;2023-01-15T10:59:34;99637.19;;;5.32;51.74
43621;BME280;29213;50.770;7.298;2023-01-15T11:02:02;99631.22;;;5.30;51.49
43621;BME280;29213;50.770;7.298;2023-01-15T11:04:39;99561.59;;;4.86;50.95
43621;BME280;29213;50.770;7.298;2023-01-15T11:07:05;99474.59;;;4.40;50.89
43621;BME280;29213;50.770;7.298;2023-01-15T11:09:35;99565.69;;;5.07;50.94
43621;BME280;29213;50.770;7.298;2023-01-15T11:12:27;99585.41;;;5.39;50.36
43621;BME280;29213;50.770;7.298;2023-01-15T11:15:21;99612.25;;;5.53;50.74
43621;BME280;29213;50.770;7.298;2023-01-15T11:18:12;99627.22;;;5.70;49.55
43621;BME280;29213;50.770;7.298;2023-01-15T11:20:59;99566.41;;;5.62;50.63
43621;BME280;29213;50.770;7.298;2023-01-15T11:23:24;99545.16;;;5.72;48.86
43621;BME280;29213;50.770;7.298;2023-01-15T11:25:56;99630.19;;;6.02;49.69
43621;BME280;29213;50.770;7.298;2023-01-15T11:28:39;99513.34;;;5.20;49.42
43621;BME280;29213;50.770;7.298;2023-01-15T11:31:08;99609.00;;;5.94;48.77
43621;BME280;29213;50.770;7.298;2023-01-15T11:33:34;99634.50;;;6.03;48.83
43621;BME280;29213;50.770;7.298;2023-01-15T11:36:18;99620.19;;;5.87;47.69
43621;BME280;29213;50.770;7.298;2023-01-15T11:38:48;99576.84;;;5.19;47.00
43621;BME280;29213;50.770;7.298;2023-01-15T11:41:26;99640.16;;;5.55;47.90
43621;BME280;29213;50.770;7.298;2023-01-15T11:44:24;99566.94;;;5.21;48.22
43621;BME280;29213;50.770;7.298;2023-01-15T11:47:10;99622.31;;;5.75;48.02
43621;BME280;29213;50.770;7.298;2023-01-15T11:49:55;99624.94;;;6.10;49.07
43621;BME280;29213;50.770;7.298;2023-01-15T11:52:46;99583.13;;;6.06;48.72
43621;BME280;29213;50.770;7.298;2023-01-15T11:55:14;99567.28;;;6.06;47.46
43621;BME280;29213;50.770;7.298;2023-01-15T11:57:43;99604.44;;;6.04;47.77
43621;BME280;29213;50.770;7.298;2023-01-15T12:00:25;99550.72;;;5.95;48.13
43621;BME280;29213;50.770;7.298;2023-01-15T12:02:56;99411.56;;;4.91;47.27
43621;BME280;29213;50.770;7.298;2023-01-15T12:05:33;99509.91;;;5.55;46.55
43621;BME280;29213;50.770;7.298;2023-01-15T12:08:02;99608.78;;;6.22;48.27
43621;BME280;29213;50.770;7.298;2023-01-15T12:10:37;99607.50;;;6.26;45.52
43621;BME280;29213;50.770;7.298;2023-01-15T12:16:26;99575.41;;;6.12;45.38
43621;BME280;29213;50.770;7.298;2023-01-15T12:19:17;99531.03;;;5.55;46.03
43621;BME280;29213;50.770;7.298;2023-01-15T12:22:02;99495.31;;;5.42;47.53
43621;BME280;29213;50.770;7.298;2023-01-15T12:25:11;99598.06;;;6.15;46.61
43621;BME280;29213;50.770;7.298;2023-01-15T12:30:01;99590.94;;;6.15;47.03
43621;BME280;29213;50.770;7.298;2023-01-15T12:32:34;99567.97;;;6.24;46.60
43621;BME280;29213;50.770;7.298;2023-01-15T12:37:34;99526.56;;;5.90;47.28
43621;BME280;29213;50.770;7.298;2023-01-15T12:40:19;99455.88;;;5.49;46.59
43621;BME280;29213;50.770;7.298;2023-01-15T12:42:51;99544.81;;;6.10;46.58
43621;BME280;29213;50.770;7.298;2023-01-15T12:45:39;99541.81;;;6.05;46.26
43621;BME280;29213;50.770;7.298;2023-01-15T12:48:25;99576.81;;;6.33;46.75
43621;BME280;29213;50.770;7.298;2023-01-15T12:50:55;99576.81;;;6.41;47.18
43621;BME280;29213;50.770;7.298;2023-01-15T13:01:28;99598.50;;;6.45;44.98
43621;BME280;29213;50.770;7.298;2023-01-15T13:04:07;99575.91;;;6.16;45.83
43621;BME280;29213;50.770;7.298;2023-01-15T13:06:38;99516.34;;;5.87;46.14
43621;BME280;29213;50.770;7.298;2023-01-15T13:09:40;99583.69;;;6.18;46.34
43621;BME280;29213;50.770;7.298;2023-01-15T13:11:57;99455.06;;;5.48;45.64
43621;BME280;29213;50.770;7.298;2023-01-15T13:14:23;99508.34;;;5.79;46.20
43621;BME280;29213;50.770;7.298;2023-01-15T13:16:53;99579.09;;;6.36;46.72
43621;BME280;29213;50.770;7.298;2023-01-15T13:21:48;99558.13;;;5.92;45.50
43621;BME280;29213;50.770;7.298;2023-01-15T13:34:53;99556.97;;;5.86;46.42
43621;BME280;29213;50.770;7.298;2023-01-15T13:37:23;99608.41;;;6.08;46.25
43621;BME280;29213;50.770;7.298;2023-01-15T13:39:54;99581.03;;;5.74;46.54
43621;BME280;29213;50.770;7.298;2023-01-15T13:42:22;99616.19;;;6.10;46.78
43621;BME280;29213;50.770;7.298;2023-01-15T13:45:05;99514.88;;;5.58;46.14
43621;BME280;29213;50.770;7.298;2023-01-15T13:47:34;99622.91;;;6.39;45.67
43621;BME280;29213;50.770;7.298;2023-01-15T13:50:12;99551.84;;;5.93;46.03
43621;BME280;29213;50.770;7.298;2023-01-15T13:52:40;99619.38;;;6.22;46.05
43621;BME280;29213;50.770;7.298;2023-01-15T13:55:29;99628.81;;;6.24;46.91
43621;BME280;29213;50.770;7.298;2023-01-15T13:57:56;99613.47;;;5.93;45.23
43621;BME280;29213;50.770;7.298;2023-01-15T14:00:35;99622.63;;;6.07;47.11
43621;BME280;29213;50.770;7.298;2023-01-15T14:03:21;99589.59;;;5.76;45.98
43621;BME280;29213;50.770;7.298;2023-01-15T14:06:08;99598.25;;;5.87;46.22
43621;BME280;29213;50.770;7.298;2023-01-15T14:08:39;99585.66;;;5.81;45.54
43621;BME280;29213;50.770;7.298;2023-01-15T14:25:43;99647.22;;;6.42;45.99
43621;BME280;29213;50.770;7.298;2023-01-15T14:32:25;99659.50;;;6.09;44.88
43621;BME280;29213;50.770;7.298;2023-01-15T14:34:24;99657.28;;;6.04;45.70
43621;BME280;29213;50.770;7.298;2023-01-15T14:37:04;99650.63;;;5.92;45.61
43621;BME280;29213;50.770;7.298;2023-01-15T14:39:39;99672.06;;;6.15;46.51
43621;BME280;29213;50.770;7.298;2023-01-15T14:45:06;99680.53;;;6.19;45.38
43621;BME280;29213;50.770;7.298;2023-01-15T14:47:44;99677.38;;;5.88;45.42